»·PEaware :: N2476J L88-KSBP

N2476J :: L88-KSBP

FLIGHT INFORMATION

Flight Status: Arrived
Operator: Privately registered:
United States
More flights under this callsign
Pilot: Joseph A. (23133)
Aircraft: CESSNA 172 SKYHAWK
(C172)
More flights by this aircraft type
Origin: L88 New Cuyama
United States
Destination: KSBP San Luis Co Regl
United States
More flights between these airports :: More routes between these airports
Route:
File this flight plan on PilotEdge
Remarks: CAT II
Altitude:
(Current/Filed)
4,500ft
Speed:
(Current/Filed)
100kts
Departed: 26-Jan-19 02:17 PM
Arrived: 26-Jan-19 02:55 PM
Distance/Time
Traveled:
50nm/0:38
Distance/Time
To Go:
Arrived

Flight Plot

Page will automatically refresh every two minutes.


Map Options




Map Legend


Flown Route
Filed Route
Departure Airport
Arrival Airport
Navaid (VOR, NDB)
Fix

Horizontal Profiles

Position Reports

Time Latitude Longitude Heading Altitude Ground
Speed
26-Jan-19 14:00 34.942853 -119.690287 203 2155ft 0kts
26-Jan-19 14:01 34.942853 -119.690287 203 2155ft 0kts
26-Jan-19 14:02 34.942853 -119.690287 203 2155ft 0kts
26-Jan-19 14:03 34.942853 -119.690287 203 2155ft 0kts
26-Jan-19 14:04 34.942853 -119.690287 203 2155ft 0kts
26-Jan-19 14:05 34.942853 -119.690287 203 2155ft 0kts
26-Jan-19 14:06 34.942853 -119.690287 203 2155ft 0kts
26-Jan-19 14:07 34.942853 -119.690287 203 2155ft 0kts
26-Jan-19 14:08 34.942853 -119.690287 203 2155ft 0kts
26-Jan-19 14:09 34.942853 -119.690287 203 2155ft 0kts
26-Jan-19 14:10 34.942851 -119.690288 204 2155ft 0kts
26-Jan-19 14:11 34.942721 -119.691175 207 2151ft 1kts
26-Jan-19 14:12 34.940780 -119.687624 117 2165ft 22kts
26-Jan-19 14:13 34.938463 -119.681954 116 2189ft 19kts
26-Jan-19 14:14 34.937657 -119.679912 267 2196ft 0kts
26-Jan-19 14:15 34.938069 -119.680956 296 2194ft 34kts
26-Jan-19 14:16 34.945456 -119.697217 288 2800ft 72kts
26-Jan-19 14:17 34.948995 -119.717528 294 3541ft 75kts
26-Jan-19 14:18 34.954528 -119.738005 286 4171ft 79kts
26-Jan-19 14:19 34.959479 -119.758262 279 4668ft 80kts
26-Jan-19 14:20 34.966463 -119.777225 293 5286ft 79kts
26-Jan-19 14:21 34.972627 -119.797474 293 5865ft 80kts
26-Jan-19 14:22 34.977991 -119.818308 293 6357ft 84kts
26-Jan-19 14:23 34.986329 -119.840346 301 6588ft 105kts
26-Jan-19 14:24 34.997867 -119.866107 293 6579ft 119kts
26-Jan-19 14:25 35.005759 -119.895431 289 6553ft 121kts
26-Jan-19 14:26 35.013700 -119.926152 290 6526ft 122kts
26-Jan-19 14:27 35.021701 -119.955572 287 6538ft 120kts
26-Jan-19 14:28 35.032372 -119.986684 294 6522ft 120kts
26-Jan-19 14:30 35.041538 -120.018157 288 6503ft 122kts
26-Jan-19 14:31 35.049104 -120.048386 289 6487ft 121kts
26-Jan-19 14:32 35.058344 -120.079116 293 6486ft 120kts
26-Jan-19 14:33 35.066284 -120.109878 282 6470ft 120kts
26-Jan-19 14:34 35.075928 -120.139633 299 6468ft 118kts
26-Jan-19 14:35 35.087670 -120.168635 295 6504ft 117kts
26-Jan-19 14:36 35.098689 -120.197936 301 6511ft 117kts
26-Jan-19 14:37 35.107135 -120.219503 295 6509ft 117kts
26-Jan-19 14:38 35.116349 -120.248445 291 6526ft 117kts
26-Jan-19 14:39 35.124518 -120.277765 290 6512ft 118kts
26-Jan-19 14:40 35.132157 -120.305933 292 6514ft 117kts
26-Jan-19 14:41 35.140781 -120.332795 292 6476ft 120kts
26-Jan-19 14:42 35.148796 -120.361446 289 6497ft 119kts
26-Jan-19 14:43 35.156268 -120.390053 292 6499ft 119kts
26-Jan-19 14:44 35.163967 -120.417623 292 6495ft 120kts
26-Jan-19 14:45 35.173761 -120.445802 295 6516ft 119kts
26-Jan-19 14:46 35.182764 -120.475163 291 6499ft 121kts
26-Jan-19 14:47 35.190680 -120.501981 295 6430ft 106kts
26-Jan-19 14:47 35.194294 -120.524918 270 5410ft 111kts
26-Jan-19 14:48 35.192141 -120.552984 268 4006ft 109kts
26-Jan-19 14:49 35.199318 -120.575636 316 2879ft 92kts
26-Jan-19 14:51 35.208917 -120.591091 304 2182ft 76kts
26-Jan-19 14:52 35.217350 -120.605655 306 1194ft 73kts
26-Jan-19 14:52 35.223426 -120.616574 303 686ft 66kts
26-Jan-19 14:53 35.230608 -120.629233 304 366ft 64kts
26-Jan-19 14:54 35.236162 -120.638911 304 216ft 35kts
26-Jan-19 14:55 35.237478 -120.639920 2 216ft 0kts
26-Jan-19 14:56 35.237479 -120.639920 3 216ft 0kts
26-Jan-19 14:57 35.237479 -120.639920 3 216ft 0kts
26-Jan-19 14:58 35.237479 -120.639920 3 216ft 0kts
26-Jan-19 14:59 35.237879 -120.640142 305 216ft 6kts
26-Jan-19 15:00 35.238413 -120.640646 296 216ft 0kts
26-Jan-19 15:01 35.238587 -120.640125 20 216ft 0kts
26-Jan-19 15:02 35.238591 -120.640124 20 216ft 0kts
26-Jan-19 15:03 35.238591 -120.640124 20 216ft 0kts
26-Jan-19 15:04 35.238591 -120.640124 20 216ft 0kts
26-Jan-19 15:05 35.238591 -120.640124 20 216ft 0kts
26-Jan-19 15:06 35.238591 -120.640124 20 216ft 0kts
26-Jan-19 15:07 35.238591 -120.640124 20 216ft 0kts
26-Jan-19 15:08 35.238591 -120.640124 20 216ft 0kts

Navigation Log

Ident Type
Flight plan parsing failed, navigation log unavailable